Time;durP1;ratioP1;P1;durP2;ratioP2;P2;SDS_P1;SDS_P2;PMS_P1;PMS_P2;Temp;Humidity;BMP_temperature;BMP_pressure;BME280_temperature;BME280_humidity;BME280_pressure;Samples;Min_cycle;Max_cycle;Signal;HPM_P1;HPM_P2
2021/03/07 00:01:50;;;;;;;24.05;12.25;;;;;;;-0.89;63.67;97165.66;5047221;28;20083;-69
2021/03/07 00:04:16;;;;;;;21.00;10.63;;;;;;;-0.93;63.67;97164.47;5045986;28;20102;-68
2021/03/07 00:06:42;;;;;;;21.65;11.18;;;;;;;-0.95;63.96;97163.03;5046861;28;20049;-68
2021/03/07 00:09:09;;;;;;;23.13;11.30;;;;;;;-0.99;64.01;97162.69;5036809;28;20050;-68
2021/03/07 00:11:35;;;;;;;23.60;12.25;;;;;;;-1.05;64.18;97155.56;5026496;28;20072;-68
2021/03/07 00:14:01;;;;;;;27.17;12.40;;;;;;;-1.07;64.44;97155.78;5027124;28;20132;-68
2021/03/07 00:16:27;;;;;;;17.23;9.65;;;;;;;-1.08;64.51;97148.00;5026270;28;20497;-68
2021/03/07 00:18:53;;;;;;;14.80;8.10;;;;;;;-1.09;64.64;97152.53;5027288;28;20056;-69
2021/03/07 00:21:19;;;;;;;14.27;7.95;;;;;;;-1.09;64.33;97159.75;5059314;28;20110;-69
2021/03/07 00:23:45;;;;;;;12.73;6.82;;;;;;;-1.13;64.11;97156.69;5071196;28;20044;-69
2021/03/07 00:26:12;;;;;;;13.15;7.00;;;;;;;-1.10;64.32;97156.25;5069663;28;20135;-69
2021/03/07 00:28:38;;;;;;;10.68;6.63;;;;;;;-1.08;64.40;97153.34;5054978;28;20041;-69
2021/03/07 00:31:05;;;;;;;11.38;6.22;;;;;;;-1.05;64.37;97158.22;5050366;28;20045;-69
2021/03/07 00:33:31;;;;;;;13.52;6.78;;;;;;;-1.04;63.93;97149.19;5053897;28;20051;-69
2021/03/07 00:35:56;;;;;;;11.07;6.72;;;;;;;-1.02;63.58;97146.28;5053095;28;20072;-69
2021/03/07 00:38:22;;;;;;;12.10;6.53;;;;;;;-1.01;63.55;97151.41;5053013;28;20123;-69
2021/03/07 00:40:49;;;;;;;12.93;6.32;;;;;;;-1.01;63.54;97164.75;5053671;28;20567;-69
2021/03/07 00:43:16;;;;;;;9.38;5.90;;;;;;;-1.01;63.01;97154.06;5052839;28;20459;-69
2021/03/07 00:45:42;;;;;;;11.82;6.82;;;;;;;-1.02;63.06;97155.13;5053855;28;20058;-69
2021/03/07 00:48:08;;;;;;;10.57;6.47;;;;;;;-1.01;63.28;97163.94;5052463;28;20427;-69
2021/03/07 00:50:34;;;;;;;12.68;6.30;;;;;;;-1.02;62.86;97162.31;5063889;28;20048;-68
2021/03/07 00:53:00;;;;;;;13.55;7.43;;;;;;;-1.03;62.50;97156.16;5072424;28;20045;-69
2021/03/07 00:55:27;;;;;;;12.52;6.95;;;;;;;-1.06;62.70;97143.22;5053415;28;20045;-69
2021/03/07 00:57:53;;;;;;;12.90;7.13;;;;;;;-1.10;62.74;97152.72;5050269;28;20053;-68
2021/03/07 01:00:22;;;;;;;13.32;6.93;;;;;;;-1.14;63.34;97155.06;5053231;28;20508;-69
2021/03/07 01:02:48;;;;;;;13.05;7.05;;;;;;;-1.16;63.17;97150.97;5053736;28;20045;-68
2021/03/07 01:05:15;;;;;;;15.10;7.65;;;;;;;-1.18;63.35;97142.38;5052141;28;20126;-68
2021/03/07 01:07:41;;;;;;;13.70;7.53;;;;;;;-1.24;63.78;97132.56;5053297;28;20045;-68
2021/03/07 01:10:12;;;;;;;14.20;7.15;;;;;;;-1.28;63.71;97136.72;5051850;28;20047;-68
2021/03/07 01:12:39;;;;;;;12.13;6.57;;;;;;;-1.34;63.85;97133.09;5053786;28;20049;-68
2021/03/07 01:15:07;;;;;;;13.57;7.47;;;;;;;-1.37;64.27;97122.84;5051867;28;20053;-68
2021/03/07 01:17:34;;;;;;;13.07;7.10;;;;;;;-1.41;64.42;97119.81;5053299;28;20500;-69
2021/03/07 01:20:00;;;;;;;11.57;6.82;;;;;;;-1.43;64.52;97118.41;5057675;28;20487;-68
2021/03/07 01:22:26;;;;;;;14.07;7.53;;;;;;;-1.46;64.43;97114.31;5072182;28;20165;-68
2021/03/07 01:24:52;;;;;;;12.82;7.47;;;;;;;-1.49;64.36;97119.28;5072587;28;20503;-69
2021/03/07 01:27:18;;;;;;;11.60;7.05;;;;;;;-1.53;64.22;97113.56;5066720;28;20140;-68
2021/03/07 01:29:44;;;;;;;12.15;6.50;;;;;;;-1.52;64.44;97120.53;5052971;28;20519;-68
2021/03/07 01:32:10;;;;;;;11.27;6.70;;;;;;;-1.51;64.56;97113.34;5051596;28;20072;-68
2021/03/07 01:34:36;;;;;;;10.77;6.72;;;;;;;-1.51;64.79;97110.66;5051963;28;20094;-68
2021/03/07 01:37:03;;;;;;;10.07;6.00;;;;;;;-1.51;64.95;97111.50;5051524;28;20551;-68
2021/03/07 01:39:28;;;;;;;14.35;6.55;;;;;;;-1.49;64.73;97103.25;5053232;28;20045;-68
2021/03/07 01:41:54;;;;;;;13.27;6.47;;;;;;;-1.48;64.49;97097.69;5051870;28;20416;-69
2021/03/07 01:44:20;;;;;;;14.05;7.15;;;;;;;-1.47;64.40;97101.19;5052225;28;20053;-68
2021/03/07 01:46:46;;;;;;;13.75;6.47;;;;;;;-1.47;64.97;97095.84;5052017;28;20053;-68
2021/03/07 01:49:13;;;;;;;12.90;7.15;;;;;;;-1.47;65.02;97096.66;5051869;28;20041;-68
2021/03/07 01:51:40;;;;;;;13.00;7.13;;;;;;;-1.46;64.96;97092.13;5070979;28;20051;-68
2021/03/07 01:54:06;;;;;;;11.57;6.72;;;;;;;-1.45;65.08;97080.41;5071422;28;20574;-69
2021/03/07 01:56:33;;;;;;;12.07;6.32;;;;;;;-1.46;65.06;97082.28;5072534;28;20407;-68
2021/03/07 01:59:02;;;;;;;13.20;6.40;;;;;;;-1.45;64.57;97078.56;5052157;28;20079;-68
2021/03/07 02:01:28;;;;;;;11.07;6.72;;;;;;;-1.46;64.39;97071.59;5052387;28;20060;-68
2021/03/07 02:03:54;;;;;;;11.10;6.60;;;;;;;-1.48;64.10;97068.31;5051231;28;20059;-68
2021/03/07 02:06:21;;;;;;;11.13;6.28;;;;;;;-1.51;63.97;97066.09;5051709;28;20499;-68
2021/03/07 02:08:48;;;;;;;9.77;6.22;;;;;;;-1.53;64.20;97064.69;5051605;28;20057;-68
2021/03/07 02:11:14;;;;;;;11.63;6.30;;;;;;;-1.59;64.55;97067.19;5051635;28;20060;-68
2021/03/07 02:13:45;;;;;;;14.05;7.32;;;;;;;-1.61;64.95;97063.13;5051851;28;20045;-68
2021/03/07 02:16:15;;;;;;;13.50;7.20;;;;;;;-1.64;64.82;97059.03;5051207;28;20045;-68
2021/03/07 02:18:43;;;;;;;13.50;7.35;;;;;;;-1.67;65.14;97067.53;5050753;28;20142;-68
2021/03/07 02:21:15;;;;;;;13.25;7.05;;;;;;;-1.69;65.01;97072.25;5064939;28;20053;-68
2021/03/07 02:23:58;;;;;;;14.05;6.95;;;;;;;-1.72;65.19;97071.88;5072348;28;20032;-68
2021/03/07 02:26:24;;;;;;;13.63;7.33;;;;;;;-1.77;65.42;97069.06;5070269;28;20045;-68
2021/03/07 02:28:50;;;;;;;14.18;7.07;;;;;;;-1.80;65.98;97070.31;5054078;28;20060;-68
2021/03/07 02:31:18;;;;;;;10.95;6.38;;;;;;;-1.79;65.82;97063.13;5050865;28;20053;-68
2021/03/07 02:33:47;;;;;;;11.05;6.45;;;;;;;-1.81;65.66;97062.53;5051248;28;20528;-68
2021/03/07 02:36:17;;;;;;;10.95;6.30;;;;;;;-1.82;65.79;97067.06;5051195;28;20071;-68
2021/03/07 02:38:47;;;;;;;10.15;5.88;;;;;;;-1.82;65.76;97060.91;5050933;28;20041;-68
2021/03/07 02:41:16;;;;;;;13.45;6.75;;;;;;;-1.82;65.53;97060.91;5051412;28;20053;-69
2021/03/07 02:43:45;;;;;;;12.80;6.72;;;;;;;-1.85;65.98;97062.97;5050500;28;20048;-68
2021/03/07 02:46:15;;;;;;;12.45;7.43;;;;;;;-1.85;65.70;97062.16;5051097;28;20049;-68
2021/03/07 02:48:42;;;;;;;12.85;7.00;;;;;;;-1.87;65.37;97059.72;5050414;28;20048;-68
2021/03/07 02:51:10;;;;;;;12.70;6.72;;;;;;;-1.88;65.45;97054.59;5065299;28;20044;-68
2021/03/07 02:53:39;;;;;;;12.27;6.47;;;;;;;-1.93;65.34;97055.28;5070816;28;20048;-68
2021/03/07 02:56:08;;;;;;;11.38;6.97;;;;;;;-1.93;65.54;97055.28;5070309;28;20048;-68
2021/03/07 02:58:38;;;;;;;12.70;6.75;;;;;;;-1.96;65.66;97050.38;5055517;28;20049;-68
2021/03/07 03:01:06;;;;;;;12.15;6.70;;;;;;;-1.99;66.19;97050.78;5050093;28;20048;-69
2021/03/07 03:03:34;;;;;;;13.32;7.40;;;;;;;-2.01;66.21;97047.53;5051516;28;20558;-68
2021/03/07 03:06:02;;;;;;;14.88;7.72;;;;;;;-2.02;66.23;97048.59;5051266;28;20049;-68
2021/03/07 03:08:30;;;;;;;14.35;6.75;;;;;;;-2.04;66.62;97045.31;5051058;28;20045;-68
2021/03/07 03:10:58;;;;;;;11.40;6.18;;;;;;;-2.05;66.68;97046.34;5050288;28;20056;-68
2021/03/07 03:13:25;;;;;;;13.25;6.95;;;;;;;-2.05;66.49;97041.00;5050458;28;20133;-68
2021/03/07 03:15:53;;;;;;;11.60;6.57;;;;;;;-2.08;66.69;97033.47;5050571;28;20056;-68
2021/03/07 03:18:20;;;;;;;10.27;6.45;;;;;;;-2.08;66.59;97033.47;5050072;28;20060;-68
2021/03/07 03:20:47;;;;;;;15.75;7.13;;;;;;;-2.10;66.66;97027.50;5062546;28;20102;-68
2021/03/07 03:23:14;;;;;;;12.77;6.15;;;;;;;-2.08;66.73;97024.66;5069193;28;20048;-68
2021/03/07 03:25:39;;;;;;;12.50;6.53;;;;;;;-2.08;66.75;97025.47;5071083;28;20040;-68
2021/03/07 03:28:08;;;;;;;12.10;6.65;;;;;;;-2.08;66.75;97025.47;5058683;28;20120;-68
2021/03/07 03:30:34;;;;;;;11.15;6.55;;;;;;;-2.10;66.80;97019.50;5051313;28;20102;-68
2021/03/07 03:33:01;;;;;;;13.60;6.95;;;;;;;-2.08;66.80;97025.47;5049819;28;20567;-68
2021/03/07 03:35:27;;;;;;;11.15;6.38;;;;;;;-2.08;66.73;97020.13;5050501;28;20049;-68
2021/03/07 03:37:54;;;;;;;12.38;6.25;;;;;;;-2.10;66.87;97016.84;5050181;28;20041;-68
2021/03/07 03:40:24;;;;;;;16.98;7.57;;;;;;;-2.10;66.76;97014.16;5049957;28;20045;-68
2021/03/07 03:42:53;;;;;;;11.90;6.30;;;;;;;-2.11;66.85;97005.34;5050358;28;20510;-68
2021/03/07 03:45:21;;;;;;;10.52;6.47;;;;;;;-2.13;67.09;97006.63;5049305;28;20049;-68
2021/03/07 03:47:52;;;;;;;14.13;6.85;;;;;;;-2.12;67.29;97008.25;5050385;28;20057;-68
2021/03/07 03:50:20;;;;;;;11.52;6.43;;;;;;;-2.13;67.37;97003.97;5046490;28;20044;-68
2021/03/07 03:52:48;;;;;;;11.55;6.45;;;;;;;-2.14;67.21;97005.81;5050541;28;20049;-68
2021/03/07 03:55:19;;;;;;;13.07;6.47;;;;;;;-2.14;66.99;97005.81;5049294;28;20515;-68
2021/03/07 03:57:48;;;;;;;12.23;6.50;;;;;;;-2.15;67.18;96998.00;5049562;28;20044;-68
2021/03/07 04:00:18;;;;;;;10.90;6.13;;;;;;;-2.18;67.34;96995.81;5049538;28;20577;-68
2021/03/07 04:02:45;;;;;;;11.02;6.43;;;;;;;-2.20;67.74;97000.53;5049821;28;20045;-68
2021/03/07 04:05:15;;;;;;;14.70;6.72;;;;;;;-2.19;67.66;96996.84;5049889;28;20053;-68
2021/03/07 04:07:45;;;;;;;12.15;6.18;;;;;;;-2.20;67.46;97000.53;5049415;28;20048;-68
2021/03/07 04:10:11;;;;;;;11.38;6.50;;;;;;;-2.21;67.58;96998.91;5050207;28;20045;-68
2021/03/07 04:12:38;;;;;;;10.43;6.45;;;;;;;-2.21;67.68;96999.72;5049279;28;20056;-68
2021/03/07 04:15:06;;;;;;;14.50;6.57;;;;;;;-2.21;67.41;96994.38;5050151;28;20124;-68
2021/03/07 04:17:33;;;;;;;10.57;6.35;;;;;;;-2.21;67.49;96998.91;5049561;28;20064;-68
2021/03/07 04:19:59;;;;;;;13.20;7.05;;;;;;;-2.21;67.79;96988.22;5049689;28;20045;-68
2021/03/07 04:22:25;;;;;;;11.95;6.43;;;;;;;-2.21;67.80;96993.56;5049280;28;20492;-68
2021/03/07 04:24:52;;;;;;;15.05;6.78;;;;;;;-2.22;67.97;96999.94;5049498;28;20052;-68
2021/03/07 04:27:19;;;;;;;10.25;6.03;;;;;;;-2.23;67.91;96993.78;5049288;28;20111;-68
2021/03/07 04:29:45;;;;;;;12.13;6.15;;;;;;;-2.22;68.04;96997.28;5048817;28;20094;-68
2021/03/07 04:32:12;;;;;;;12.18;6.18;;;;;;;-2.22;67.83;96995.41;5049647;28;20049;-68
2021/03/07 04:34:38;;;;;;;11.43;6.47;;;;;;;-2.21;67.52;96989.03;5048947;28;20072;-68
2021/03/07 04:37:05;;;;;;;14.35;6.80;;;;;;;-2.20;67.69;96992.53;5050047;28;20068;-68
2021/03/07 04:39:31;;;;;;;11.07;6.53;;;;;;;-2.17;66.71;96994.75;5049116;28;20047;-68
2021/03/07 04:41:58;;;;;;;13.00;6.60;;;;;;;-2.18;66.49;96988.59;5049957;28;20555;-68
2021/03/07 04:44:24;;;;;;;13.95;6.82;;;;;;;-2.18;66.52;96985.13;5048977;28;20045;-68
2021/03/07 04:46:50;;;;;;;13.07;6.85;;;;;;;-2.19;66.54;96991.50;5049682;28;20049;-68
2021/03/07 04:49:16;;;;;;;11.68;6.30;;;;;;;-2.20;66.52;96984.50;5048849;28;20061;-68
2021/03/07 04:51:42;;;;;;;12.27;6.32;;;;;;;-2.20;66.46;96989.84;5049191;28;20045;-68
2021/03/07 04:54:09;;;;;;;11.93;6.53;;;;;;;-2.24;66.34;96992.16;5049414;28;20049;-68
2021/03/07 04:56:35;;;;;;;11.23;6.03;;;;;;;-2.26;66.48;96985.41;5049023;28;20048;-68
2021/03/07 04:59:01;;;;;;;13.20;7.05;;;;;;;-2.27;66.69;96989.13;5049782;28;20504;-68
2021/03/07 05:01:27;;;;;;;11.48;6.47;;;;;;;-2.27;66.60;96986.44;5048787;28;20040;-68
2021/03/07 05:03:53;;;;;;;13.50;6.80;;;;;;;-2.26;66.58;96982.75;5050042;28;20127;-68
2021/03/07 05:06:20;;;;;;;11.52;6.35;;;;;;;-2.25;66.92;96989.69;5048441;28;20092;-68
2021/03/07 05:08:46;;;;;;;12.25;6.97;;;;;;;-2.24;67.12;96988.69;5051663;28;20049;-68
2021/03/07 05:11:12;;;;;;;11.15;6.72;;;;;;;-2.24;66.78;96980.69;5052512;28;20080;-68
2021/03/07 05:13:37;;;;;;;11.00;7.35;;;;;;;-2.24;66.73;96980.69;5052913;28;20071;-68
2021/03/07 05:16:05;;;;;;;11.05;6.57;;;;;;;-2.25;66.51;96984.38;5052717;28;20106;-68
2021/03/07 05:18:31;;;;;;;13.27;7.25;;;;;;;-2.25;66.53;96976.34;5053161;28;20049;-68
2021/03/07 05:20:57;;;;;;;10.38;6.13;;;;;;;-2.28;66.87;96979.50;5053554;28;20063;-68
2021/03/07 05:23:23;;;;;;;10.68;5.97;;;;;;;-2.30;66.98;96969.00;5051701;28;20130;-68
2021/03/07 05:25:48;;;;;;;12.32;6.75;;;;;;;-2.31;67.18;96979.91;5053267;28;20411;-68
2021/03/07 05:28:15;;;;;;;14.40;6.68;;;;;;;-2.31;67.00;96969.25;5051381;28;20095;-68
2021/03/07 05:30:41;;;;;;;12.82;6.55;;;;;;;-2.32;67.10;96971.09;5053120;28;20037;-68
2021/03/07 05:33:08;;;;;;;15.20;7.40;;;;;;;-2.33;67.13;96968.66;5051730;28;20052;-68
2021/03/07 05:35:33;;;;;;;12.80;6.68;;;;;;;-2.33;67.22;96974.00;5052523;28;20492;-68
2021/03/07 05:37:59;;;;;;;13.18;6.57;;;;;;;-2.36;67.49;96960.03;5052377;28;20132;-68
2021/03/07 05:40:26;;;;;;;13.88;6.82;;;;;;;-2.37;67.51;96969.09;5051901;28;20064;-68
2021/03/07 05:42:52;;;;;;;15.07;7.32;;;;;;;-2.38;67.79;96964.81;5052569;28;20037;-68
2021/03/07 05:45:18;;;;;;;12.65;6.65;;;;;;;-2.38;68.11;96967.47;5051387;28;20045;-68
2021/03/07 05:47:44;;;;;;;15.07;7.63;;;;;;;-2.38;68.26;96969.31;5052859;28;20095;-68
2021/03/07 05:50:11;;;;;;;12.10;6.72;;;;;;;-2.38;67.93;96967.47;5052136;28;20052;-68
2021/03/07 05:52:39;;;;;;;14.27;7.20;;;;;;;-2.39;67.56;96960.50;5052698;28;20059;-68
2021/03/07 05:55:06;;;;;;;13.60;6.65;;;;;;;-2.39;67.72;96965.84;5051268;28;20504;-68
2021/03/07 05:57:32;;;;;;;15.60;8.25;;;;;;;-2.39;67.80;96960.50;5052399;28;20056;-68
2021/03/07 06:00:01;;;;;;;13.93;7.03;;;;;;;-2.36;67.48;96964.56;5052058;28;20110;-68
2021/03/07 06:02:27;;;;;;;14.50;6.72;;;;;;;-2.37;67.23;96969.09;5057522;28;20071;-68
2021/03/07 06:04:54;;;;;;;12.18;7.00;;;;;;;-2.36;67.47;96970.72;5071537;28;20099;-68
2021/03/07 06:07:21;;;;;;;12.70;7.28;;;;;;;-2.37;67.70;96968.28;5071154;28;20411;-68
2021/03/07 06:09:48;;;;;;;11.95;7.20;;;;;;;-2.34;67.56;96961.69;5072227;28;20569;-68
2021/03/07 06:12:15;;;;;;;14.23;7.25;;;;;;;-2.32;67.99;96964.94;5070740;28;20442;-68
2021/03/07 06:14:43;;;;;;;12.73;7.00;;;;;;;-2.29;67.72;96959.19;5072400;28;20044;-68
2021/03/07 06:17:11;;;;;;;14.77;7.28;;;;;;;-2.28;67.77;96961.63;5070762;28;20044;-68
2021/03/07 06:19:58;;;;;;;15.13;7.82;;;;;;;-2.25;68.06;96955.00;5060001;28;20052;-68
2021/03/07 06:22:25;;;;;;;12.18;6.63;;;;;;;-2.23;68.13;96952.97;5051177;28;20103;-68
2021/03/07 06:24:52;;;;;;;12.60;7.35;;;;;;;-2.21;68.20;96956.22;5051296;28;20086;-68
2021/03/07 06:27:18;;;;;;;14.93;7.28;;;;;;;-2.17;68.27;96955.53;5051141;28;20400;-68
2021/03/07 06:29:57;;;;;;;15.38;7.65;;;;;;;-2.14;68.53;96954.28;5050927;28;20041;-68
2021/03/07 06:32:25;;;;;;;11.80;7.25;;;;;;;-2.06;68.17;96954.00;5051580;28;20041;-68
2021/03/07 06:34:51;;;;;;;13.23;8.02;;;;;;;-2.01;68.47;96951.47;5050849;28;20053;-68
2021/03/07 06:37:18;;;;;;;13.00;6.95;;;;;;;-1.93;68.21;96953.00;5051416;28;20266;-68
2021/03/07 06:39:46;;;;;;;13.45;7.70;;;;;;;-1.87;68.24;96947.59;5051042;28;20518;-68
2021/03/07 06:42:13;;;;;;;15.00;7.85;;;;;;;-1.78;68.21;96952.63;5050992;28;20045;-68
2021/03/07 06:44:52;;;;;;;14.23;7.47;;;;;;;-1.71;68.34;96942.69;5051043;28;20045;-68
2021/03/07 06:47:18;;;;;;;13.05;6.78;;;;;;;-1.65;68.08;96944.44;5050332;28;20045;-67
2021/03/07 06:49:44;;;;;;;13.95;7.90;;;;;;;-1.61;68.25;96929.63;5051351;28;20041;-68
2021/03/07 06:52:12;;;;;;;14.10;7.53;;;;;;;-1.54;68.53;96930.31;5050026;28;20080;-68
2021/03/07 06:54:39;;;;;;;15.43;7.80;;;;;;;-1.47;68.27;96925.69;5051706;28;20131;-67
2021/03/07 06:57:07;;;;;;;12.70;7.55;;;;;;;-1.38;67.87;96921.66;5048602;28;20045;-68
2021/03/07 06:59:34;;;;;;;13.27;6.78;;;;;;;-1.28;67.55;96926.47;5047808;28;20076;-68
2021/03/07 07:02:00;;;;;;;10.95;6.28;;;;;;;-1.23;66.53;96925.78;5046719;28;20055;-68
2021/03/07 07:04:40;;;;;;;14.65;6.93;;;;;;;-1.17;65.77;96919.50;5046207;28;20048;-68
2021/03/07 07:07:07;;;;;;;12.05;6.57;;;;;;;-1.13;65.95;96924.16;5046718;28;20053;-68
2021/03/07 07:09:34;;;;;;;13.07;6.78;;;;;;;-1.04;65.52;96924.66;5047163;28;20048;-68
2021/03/07 07:12:01;;;;;;;11.60;6.80;;;;;;;-0.97;65.19;96919.19;5047952;28;20049;-68
2021/03/07 07:14:38;;;;;;;11.15;6.65;;;;;;;-0.88;65.12;96920.50;5047311;28;20049;-68
2021/03/07 07:17:04;;;;;;;13.98;6.90;;;;;;;-0.76;64.59;96920.50;5047497;28;20572;-68
2021/03/07 07:19:30;;;;;;;12.32;6.82;;;;;;;-0.72;64.23;96922.47;5055406;28;20067;-68
2021/03/07 07:21:56;;;;;;;10.32;6.38;;;;;;;-0.59;64.37;96916.88;5067577;28;20056;-68
2021/03/07 07:24:23;;;;;;;12.40;6.95;;;;;;;-0.41;65.67;96918.63;5066517;28;20067;-68
2021/03/07 07:26:49;;;;;;;12.88;7.03;;;;;;;-0.22;65.25;96921.97;5065509;28;20064;-68
2021/03/07 07:29:17;;;;;;;11.40;6.90;;;;;;;0.20;63.84;96919.88;5046828;28;20053;-68
2021/03/07 07:31:50;;;;;;;13.63;6.50;;;;;;;0.77;62.72;96919.84;5045988;28;20059;-68
2021/03/07 07:34:19;;;;;;;11.52;6.57;;;;;;;1.30;61.28;96912.41;5047172;28;20072;-68
2021/03/07 07:36:49;;;;;;;18.50;8.18;;;;;;;1.56;59.05;96908.22;5046049;28;20405;-69
2021/03/07 07:39:28;;;;;;;10.68;6.45;;;;;;;2.15;59.00;96911.16;5047329;28;20103;-68
2021/03/07 07:41:55;;;;;;;10.77;6.53;;;;;;;2.31;58.18;96912.16;5047740;28;20056;-68
2021/03/07 07:44:29;;;;;;;12.23;7.00;;;;;;;1.95;57.79;96909.03;5046808;28;20048;-68
2021/03/07 07:46:58;;;;;;;13.68;7.40;;;;;;;1.69;58.64;96915.13;5046850;28;20092;-79
2021/03/07 07:49:52;;;;;;;13.57;7.47;;;;;;;1.90;58.88;96905.47;5054095;28;20499;-72
2021/03/07 07:52:48;;;;;;;14.68;7.80;;;;;;;2.12;58.64;96906.28;5030894;28;20518;-71
2021/03/07 07:55:15;;;;;;;13.32;7.57;;;;;;;2.79;57.44;96897.84;5066435;28;20079;-71
2021/03/07 07:57:47;;;;;;;11.90;7.03;;;;;;;3.39;57.43;96901.28;5058500;28;20048;-72
2021/03/07 08:00:16;;;;;;;11.52;6.85;;;;;;;3.81;54.72;96893.22;5046785;28;20049;-72
2021/03/07 08:02:53;;;;;;;16.25;6.80;;;;;;;4.16;53.08;96889.06;5046681;28;20061;-71
2021/03/07 08:05:44;;;;;;;11.15;6.80;;;;;;;4.56;52.33;96892.97;5047130;28;20049;-72
2021/03/07 08:08:13;;;;;;;14.38;7.97;;;;;;;4.83;51.95;96893.56;5045789;28;20041;-72
2021/03/07 08:10:50;;;;;;;14.38;8.35;;;;;;;5.21;49.74;96891.41;5047666;28;20080;-72
2021/03/07 08:13:43;;;;;;;11.43;6.88;;;;;;;5.07;50.14;96888.47;5046391;28;20056;-69
2021/03/07 08:16:09;;;;;;;13.02;7.63;;;;;;;5.01;50.58;96883.31;5046260;28;20048;-72
2021/03/07 08:18:47;;;;;;;10.90;6.82;;;;;;;5.23;50.18;96881.19;5047782;28;20506;-72
2021/03/07 08:21:14;;;;;;;12.85;7.63;;;;;;;5.66;50.00;96887.06;5065570;28;20060;-72
2021/03/07 08:23:58;;;;;;;12.02;7.32;;;;;;;6.07;48.86;96881.59;5067563;28;20040;-72
2021/03/07 08:26:25;;;;;;;;;;;;;;;6.54;47.91;96873.78;5066435;28;20044;-72
2021/03/07 08:28:51;;;;;;;11.25;7.25;;;;;;;6.38;47.79;96869.53;5048358;28;20391;-73
2021/03/07 08:31:36;;;;;;;14.25;8.20;;;;;;;6.83;48.56;96859.53;5046296;28;20049;-70
2021/03/07 08:34:20;;;;;;;11.00;7.60;;;;;;;7.25;45.97;96864.34;5045861;28;20500;-72
2021/03/07 08:36:58;;;;;;;12.98;7.47;;;;;;;7.43;46.24;96860.13;5047545;28;20110;-71
2021/03/07 08:39:24;;;;;;;11.88;7.15;;;;;;;7.63;45.60;96855.63;5045407;28;20041;-71
2021/03/07 08:41:59;;;;;;;10.00;6.35;;;;;;;7.73;45.79;96855.53;5047486;28;20048;-71
2021/03/07 08:44:25;;;;;;;12.18;7.15;;;;;;;7.92;44.61;96844.72;5049436;28;20142;-72
2021/03/07 08:46:51;;;;;;;11.70;6.65;;;;;;;7.86;45.59;96843.97;5050418;28;20048;-71
2021/03/07 08:49:20;;;;;;;11.93;6.85;;;;;;;7.66;46.65;96849.59;5057055;28;20052;-71
2021/03/07 08:51:48;;;;;;;10.20;6.70;;;;;;;7.73;45.88;96839.25;5069803;28;20052;-71
2021/03/07 08:54:15;;;;;;;10.30;6.65;;;;;;;7.33;46.77;96843.97;5070751;28;20463;-71
2021/03/07 08:56:42;;;;;;;12.02;7.10;;;;;;;7.63;47.66;96840.16;5069608;28;20674;-73
2021/03/07 08:59:10;;;;;;;11.75;7.28;;;;;;;7.76;46.80;96842.19;5050508;28;20838;-73
2021/03/07 09:01:37;;;;;;;11.30;7.43;;;;;;;8.07;46.92;96829.06;5049855;28;20049;-71
2021/03/07 09:04:04;;;;;;;10.85;7.07;;;;;;;8.52;46.87;96829.63;5049142;28;20053;-70
2021/03/07 09:06:33;;;;;;;12.85;7.72;;;;;;;8.62;45.37;96828.66;5049846;28;20690;-71
2021/03/07 09:09:05;;;;;;;12.73;7.88;;;;;;;8.55;45.85;96823.59;5050165;28;20049;-71
2021/03/07 09:11:31;;;;;;;11.65;8.15;;;;;;;8.47;45.68;96821.53;5030290;28;20053;-71
2021/03/07 09:13:58;;;;;;;13.48;7.97;;;;;;;8.44;46.59;96816.69;5029417;28;20765;-72
2021/03/07 09:16:36;;;;;;;11.70;7.72;;;;;;;8.47;45.82;96810.69;5029037;28;20049;-71
2021/03/07 09:19:02;;;;;;;12.13;8.02;;;;;;;8.38;46.55;96815.16;5041983;28;20500;-71
2021/03/07 09:21:28;;;;;;;12.63;8.57;;;;;;;8.45;48.19;96809.34;5030205;28;20053;-71
2021/03/07 09:23:55;;;;;;;12.23;8.05;;;;;;;8.51;46.40;96806.28;5029716;28;20076;-71
2021/03/07 09:26:22;;;;;;;12.38;7.97;;;;;;;8.66;47.01;96807.16;5029940;28;20071;-71
2021/03/07 09:28:50;;;;;;;11.73;7.90;;;;;;;8.51;46.19;96792.72;5029520;28;20053;-71
2021/03/07 09:31:18;;;;;;;11.63;7.78;;;;;;;8.67;46.37;96795.22;5029746;28;20049;-70
2021/03/07 09:33:48;;;;;;;11.15;7.30;;;;;;;8.65;45.55;96791.97;5033416;28;20041;-70
2021/03/07 09:36:14;;;;;;;11.57;7.22;;;;;;;8.46;46.94;96795.50;5039027;28;20057;-70
2021/03/07 09:38:51;;;;;;;11.75;7.68;;;;;;;8.61;47.55;96789.84;5030799;28;20056;-71
2021/03/07 09:41:29;;;;;;;11.23;7.40;;;;;;;8.10;47.49;96798.66;5028802;28;20049;-71
2021/03/07 09:43:56;;;;;;;11.52;7.55;;;;;;;8.30;49.36;96794.06;5030291;28;20057;-71
2021/03/07 09:46:24;;;;;;;11.57;7.43;;;;;;;8.55;46.78;96788.28;5028565;28;20049;-71
2021/03/07 09:48:55;;;;;;;11.50;7.60;;;;;;;8.42;47.70;96786.34;5029349;28;20079;-71
2021/03/07 09:51:21;;;;;;;9.98;7.22;;;;;;;8.59;46.87;96785.81;5032437;28;20053;-71
2021/03/07 09:53:48;;;;;;;13.10;7.25;;;;;;;8.81;45.54;96774.34;5048903;28;20638;-71
2021/03/07 09:56:27;;;;;;;13.02;7.70;;;;;;;8.77;45.09;96776.03;5048467;28;20060;-70
2021/03/07 09:58:53;;;;;;;13.18;7.30;;;;;;;8.79;45.78;96773.84;5030304;28;20061;-70
2021/03/07 10:01:20;;;;;;;11.90;7.43;;;;;;;8.91;46.97;96776.09;5029604;28;20045;-71
2021/03/07 10:03:46;;;;;;;11.20;6.50;;;;;;;8.99;45.80;96768.06;5028741;28;20053;-71
2021/03/07 10:06:16;;;;;;;10.68;7.32;;;;;;;9.27;44.58;96770.84;5029063;28;20053;-71
2021/03/07 10:08:43;;;;;;;11.45;6.43;;;;;;;9.33;44.84;96764.22;5028884;28;20054;-71
2021/03/07 10:11:15;;;;;;;17.08;7.70;;;;;;;9.64;44.78;96757.09;5028271;28;20053;-72
2021/03/07 10:13:43;;;;;;;10.93;7.23;;;;;;;9.84;44.22;96755.06;5029394;28;20455;-71
2021/03/07 10:16:11;;;;;;;10.15;6.93;;;;;;;9.85;44.21;96751.25;5028206;28;20057;-71
2021/03/07 10:18:37;;;;;;;10.57;7.10;;;;;;;10.08;44.05;96750.22;5030513;28;20049;-70
2021/03/07 10:21:04;;;;;;;11.15;7.15;;;;;;;10.13;44.47;96743.88;5047241;28;20053;-71
2021/03/07 10:23:32;;;;;;;13.18;7.65;;;;;;;10.33;45.61;96737.19;5029507;28;20053;-70
2021/03/07 10:25:58;;;;;;;10.95;7.40;;;;;;;10.08;43.52;96744.78;5027952;28;20783;-70
2021/03/07 10:28:26;;;;;;;11.65;7.90;;;;;;;9.71;44.37;96736.84;5028443;28;20115;-71
2021/03/07 10:30:56;;;;;;;13.02;8.27;;;;;;;9.61;45.04;96725.09;5028540;28;20049;-70
2021/03/07 10:33:26;;;;;;;12.00;8.27;;;;;;;9.36;45.61;96722.84;5028533;28;20080;-70
2021/03/07 10:36:00;;;;;;;13.63;7.78;;;;;;;9.30;47.56;96714.00;5028933;28;20056;-71
2021/03/07 10:38:26;;;;;;;14.07;8.77;;;;;;;9.42;47.22;96716.22;5028039;28;20049;-70
2021/03/07 10:40:52;;;;;;;12.82;8.63;;;;;;;9.38;46.32;96715.19;5028887;28;20401;-70
2021/03/07 10:43:18;;;;;;;14.68;9.13;;;;;;;9.38;47.18;96709.75;5027487;28;20053;-71
2021/03/07 10:45:45;;;;;;;15.48;8.93;;;;;;;9.20;47.61;96697.06;5029076;28;20060;-71
2021/03/07 10:48:12;;;;;;;14.95;9.05;;;;;;;9.22;48.28;96700.28;5027541;28;20056;-71
2021/03/07 10:50:42;;;;;;;14.40;9.45;;;;;;;9.19;47.62;96695.44;5046978;28;20412;-70
2021/03/07 10:53:09;;;;;;;14.88;9.13;;;;;;;8.90;48.41;96693.81;5029171;28;20060;-71
2021/03/07 10:55:35;;;;;;;14.15;8.75;;;;;;;9.03;49.31;96693.03;5028357;28;20484;-69
2021/03/07 10:58:01;;;;;;;13.88;9.40;;;;;;;9.00;48.30;96692.81;5027996;28;20099;-72
2021/03/07 11:00:27;;;;;;;13.93;9.02;;;;;;;8.68;48.46;96696.38;5046073;28;20048;-70
2021/03/07 11:02:54;;;;;;;13.15;9.45;;;;;;;8.66;50.21;96690.41;5047586;28;20670;-70
2021/03/07 11:05:21;;;;;;;16.02;10.35;;;;;;;8.73;49.92;96685.41;5046738;28;20068;-70
2021/03/07 11:07:47;;;;;;;15.55;9.32;;;;;;;8.84;49.51;96684.13;5047542;28;20052;-71
2021/03/07 11:10:16;;;;;;;17.75;10.55;;;;;;;8.87;50.31;96683.53;5047761;28;20053;-71
2021/03/07 11:12:42;;;;;;;16.77;10.75;;;;;;;8.71;50.15;96680.28;5048029;28;20040;-70
2021/03/07 11:15:11;;;;;;;15.95;9.85;;;;;;;8.55;50.42;96681.63;5047104;28;20079;-72
2021/03/07 11:17:37;;;;;;;15.98;10.50;;;;;;;8.62;52.24;96682.88;5047703;28;20045;-72
2021/03/07 11:20:04;;;;;;;15.02;10.15;;;;;;;8.81;51.47;96682.00;5060124;28;20045;-72
2021/03/07 11:22:31;;;;;;;15.52;9.57;;;;;;;8.85;52.26;96685.75;5067455;28;20049;-71
2021/03/07 11:24:57;;;;;;;18.25;11.18;;;;;;;8.79;51.16;96678.78;5067882;28;20056;-70
2021/03/07 11:27:23;;;;;;;15.50;10.05;;;;;;;8.95;51.53;96674.69;5060463;28;20074;-72
2021/03/07 11:29:49;;;;;;;16.83;11.10;;;;;;;9.09;51.42;96663.88;5047475;28;20495;-72
2021/03/07 11:32:15;;;;;;;16.55;10.60;;;;;;;9.16;52.00;96664.25;5047177;28;20088;-71